Yelm, Washington
Current Conditions -  °F | °C
As of 3:58 AM on Thursday 29 Jan 2015 (Local Time) from KGRF Reporting Station
Overcast Overcast  
Wind Chill: 40°   Ceiling: 500
Heat Index: 40°   Visibility: 10mi
Dew Point: 40°   Wind: 0mph
Humidity: 99%   Direction: NA
Pressure: 30.34"   Gusts: NA
Location:  46.94°N, 122.61°W
Report Text: KGRF 291158Z 00000KT 10SM OVC005 05/04 A3034 RMK AO2A SLP279 T00450043 10045 20018 58003 PWINO $
Loading
Personal Weather Stations






























Interactive Weather Map New forecast layout! Learn more

10-Day Weather Forecast

Advertisements
Track Severe Weather on mobile